Time;durP1;ratioP1;P1;durP2;ratioP2;P2;SDS_P1;SDS_P2;PMS_P1;PMS_P2;Temp;Humidity;BMP_temperature;BMP_pressure;BME280_temperature;BME280_humidity;BME280_pressure;Samples;Min_cycle;Max_cycle;Signal;HPM_P1;HPM_P2
2023/09/13 00:01:47;;;;;;;5.28;2.40;;;;;;;19.09;60.50;99509.00;4924052;29;20489;-92
2023/09/13 00:04:14;;;;;;;3.55;2.50;;;;;;;19.11;59.71;99501.28;4940594;29;20035;-91
2023/09/13 00:06:40;;;;;;;4.68;3.40;;;;;;;19.01;60.70;99500.78;4909020;29;20493;-91
2023/09/13 00:09:08;;;;;;;6.97;3.58;;;;;;;18.98;61.56;99504.97;4925112;29;20106;-91
2023/09/13 00:11:38;;;;;;;4.78;3.03;;;;;;;18.88;62.16;99505.28;4925545;29;20042;-90
2023/09/13 00:14:04;;;;;;;7.75;3.30;;;;;;;18.72;62.14;99494.03;4924802;29;20118;-92
2023/09/13 00:16:30;;;;;;;10.55;3.67;;;;;;;18.67;62.23;99494.97;4925117;29;20037;-91
2023/09/13 00:18:55;;;;;;;9.40;3.60;;;;;;;18.63;62.47;99495.94;4925172;29;20023;-91
2023/09/13 00:21:24;;;;;;;5.95;3.70;;;;;;;18.64;62.34;99501.06;4925368;29;20039;-91
2023/09/13 00:23:49;;;;;;;7.50;3.35;;;;;;;18.71;61.95;99495.94;4926074;29;20560;-91
2023/09/13 00:26:15;;;;;;;7.22;3.75;;;;;;;18.69;62.26;99497.38;4940529;29;20039;-91
2023/09/13 00:28:40;;;;;;;5.55;3.20;;;;;;;18.72;62.41;99500.28;4939466;29;20035;-90
2023/09/13 00:31:09;;;;;;;4.82;3.10;;;;;;;18.77;62.20;99500.09;4908864;29;20050;-90
2023/09/13 00:33:35;;;;;;;9.80;3.83;;;;;;;18.70;62.21;99491.63;4946305;28;20049;-91
2023/09/13 00:36:00;;;;;;;6.20;3.50;;;;;;;18.63;62.43;99485.00;4928263;28;20039;-91
2023/09/13 00:38:26;;;;;;;4.70;3.30;;;;;;;18.63;62.74;99479.56;4940471;29;20502;-91
2023/09/13 00:40:52;;;;;;;5.03;3.00;;;;;;;18.66;62.44;99487.13;4931431;29;20070;-92
2023/09/13 00:43:17;;;;;;;5.57;3.00;;;;;;;18.67;62.43;99484.06;4922195;29;20505;-92
2023/09/13 00:45:54;;;;;;;10.05;3.40;;;;;;;18.55;62.75;99475.69;4936943;29;20040;-92
2023/09/13 00:48:28;;;;;;;6.88;3.30;;;;;;;18.45;63.44;99471.38;4922971;29;20036;-92
2023/09/13 00:50:54;;;;;;;7.57;3.50;;;;;;;18.33;63.97;99471.19;4939775;29;20064;-92
2023/09/13 00:53:22;;;;;;;9.23;3.30;;;;;;;18.32;64.07;99478.56;4959317;29;20027;-92
2023/09/13 00:55:49;;;;;;;5.97;3.78;;;;;;;18.24;63.93;99471.16;4924891;29;20032;-92
2023/09/13 00:58:20;;;;;;;7.05;3.38;;;;;;;18.28;64.36;99477.59;4937935;29;20046;-92
2023/09/13 01:00:53;;;;;;;11.73;3.60;;;;;;;18.23;64.71;99482.38;4941408;29;20508;-93
2023/09/13 01:03:20;;;;;;;9.23;3.78;;;;;;;18.29;64.39;99497.47;4925731;29;20050;-92
2023/09/13 01:05:49;;;;;;;7.35;3.60;;;;;;;18.11;64.58;99472.09;4909466;29;20036;-92
2023/09/13 01:08:24;;;;;;;7.20;3.83;;;;;;;18.00;64.76;99465.31;4910056;29;20550;-92
2023/09/13 01:10:50;;;;;;;5.05;3.65;;;;;;;18.13;64.79;99497.09;4926891;29;20059;-92
2023/09/13 01:13:18;;;;;;;8.50;3.53;;;;;;;18.06;65.24;99488.59;4926094;29;20099;-92
2023/09/13 01:15:50;;;;;;;10.10;3.58;;;;;;;18.02;64.94;99484.88;4926779;29;20119;-92
2023/09/13 01:18:25;;;;;;;8.23;3.20;;;;;;;17.90;65.15;99471.84;4953045;29;20466;-91
2023/09/13 01:21:12;;;;;;;9.23;3.72;;;;;;;17.98;65.28;99487.44;4941626;29;20051;-92
2023/09/13 01:24:00;;;;;;;5.07;3.05;;;;;;;17.99;65.49;99491.75;4963598;28;20597;-92
2023/09/13 01:26:53;;;;;;;8.30;3.65;;;;;;;17.69;65.55;99455.25;4939618;29;20044;-90
2023/09/13 01:29:19;;;;;;;6.13;3.70;;;;;;;17.76;65.72;99470.03;4941492;29;20110;-91
2023/09/13 01:31:51;;;;;;;8.77;3.55;;;;;;;17.74;65.69;99468.69;4940978;29;20043;-92
2023/09/13 01:34:19;;;;;;;;;;;;;;;17.82;66.13;99488.94;4938518;29;20044;-93
2023/09/13 01:36:45;;;;;;;9.55;3.38;;;;;;;17.74;65.83;99474.97;4956614;29;19914;-91
2023/09/13 01:39:25;;;;;;;6.20;3.28;;;;;;;17.56;65.87;99456.94;4951389;29;20046;-92
2023/09/13 01:42:14;;;;;;;7.00;3.85;;;;;;;17.54;65.95;99454.53;4937767;29;20418;-93
2023/09/13 01:44:40;;;;;;;9.10;3.60;;;;;;;17.78;66.14;99486.03;4928117;29;20039;-91
2023/09/13 01:47:13;;;;;;;7.00;3.60;;;;;;;17.66;66.03;99473.00;4941810;28;20512;-91
2023/09/13 01:49:38;;;;;;;5.70;3.47;;;;;;;17.75;66.02;99484.75;4963652;28;20047;-92
2023/09/13 01:52:07;;;;;;;6.50;3.50;;;;;;;17.53;66.25;99461.06;4946426;28;20377;-92
2023/09/13 01:54:39;;;;;;;6.18;3.83;;;;;;;17.77;66.12;99492.59;4962754;28;20481;-92
2023/09/13 01:57:15;;;;;;;6.30;3.88;;;;;;;17.65;66.12;99479.56;4947487;28;20522;-91
2023/09/13 01:59:44;;;;;;;7.07;3.35;;;;;;;17.57;66.23;99458.53;4946320;28;20038;-91
2023/09/13 02:02:09;;;;;;;5.82;4.00;;;;;;;17.67;66.10;99477.34;4962101;28;20039;-90
2023/09/13 02:04:38;;;;;;;6.40;3.47;;;;;;;17.67;65.97;99476.53;4946479;28;20039;-91
2023/09/13 02:07:13;;;;;;;4.90;3.35;;;;;;;17.60;66.15;99468.81;4946354;28;20047;-91
2023/09/13 02:09:39;;;;;;;8.00;3.67;;;;;;;17.68;66.20;99481.66;4949065;28;20053;-91
2023/09/13 02:12:09;;;;;;;5.80;3.33;;;;;;;17.81;65.97;99496.31;4946699;28;20042;-92
2023/09/13 02:14:35;;;;;;;5.33;3.33;;;;;;;17.69;65.97;99474.31;4947622;28;20027;-92
2023/09/13 02:17:03;;;;;;;6.63;3.53;;;;;;;17.77;65.95;99490.69;4946260;28;20424;-91
2023/09/13 02:19:32;;;;;;;7.38;3.65;;;;;;;17.79;65.97;99504.00;4962178;28;20089;-91
2023/09/13 02:21:57;;;;;;;8.80;4.20;;;;;;;17.72;65.90;99493.56;4963443;28;20045;-91
2023/09/13 02:24:28;;;;;;;7.15;3.38;;;;;;;17.56;66.17;99463.19;4945927;28;20493;-90
2023/09/13 02:26:57;;;;;;;8.23;3.80;;;;;;;17.57;66.45;99467.50;4962900;28;20042;-92
2023/09/13 02:29:31;;;;;;;5.35;3.30;;;;;;;17.63;66.38;99481.00;4930764;28;20033;-92
2023/09/13 02:31:57;;;;;;;5.10;3.50;;;;;;;17.61;66.69;99484.03;4931844;28;20038;-90
2023/09/13 02:34:25;;;;;;;8.05;3.40;;;;;;;17.48;66.50;99474.84;4945077;28;20042;-92
2023/09/13 02:36:51;;;;;;;4.70;3.35;;;;;;;17.45;65.92;99464.59;4978429;28;20503;-92
2023/09/13 02:39:39;;;;;;;9.48;3.53;;;;;;;17.55;66.43;99482.56;4961491;28;20046;-92
2023/09/13 02:42:05;;;;;;;6.65;3.47;;;;;;;17.49;66.31;99481.91;4963506;28;20515;-91
2023/09/13 02:44:31;;;;;;;5.18;3.17;;;;;;;17.60;66.08;99496.03;4962194;28;20090;-92
2023/09/13 02:47:00;;;;;;;5.15;3.70;;;;;;;17.51;66.56;99487.00;4961196;28;20422;-93
2023/09/13 02:49:28;;;;;;;4.63;3.45;;;;;;;17.51;66.44;99489.72;4944914;28;20030;-93
2023/09/13 02:51:54;;;;;;;8.75;3.53;;;;;;;17.46;66.52;99484.44;4961918;28;20109;-91
2023/09/13 02:54:20;;;;;;;6.55;3.05;;;;;;;17.39;66.69;99476.72;4979045;28;20102;-92
2023/09/13 02:56:47;;;;;;;5.50;3.13;;;;;;;17.42;66.97;99486.16;4962724;28;20110;-92
2023/09/13 02:59:13;;;;;;;5.43;3.42;;;;;;;17.36;67.03;99480.03;4929760;28;20035;-91
2023/09/13 03:01:38;;;;;;;10.30;3.47;;;;;;;17.24;67.12;99460.75;4945665;28;20496;-91
2023/09/13 03:04:04;;;;;;;8.65;3.80;;;;;;;17.40;67.46;99502.00;4946152;28;20070;-92
2023/09/13 03:06:30;;;;;;;5.40;3.05;;;;;;;17.37;67.43;99500.72;4961435;28;20046;-92
2023/09/13 03:08:58;;;;;;;7.22;3.22;;;;;;;17.13;67.53;99462.94;4961503;28;20071;-92
2023/09/13 03:11:23;;;;;;;4.85;3.17;;;;;;;17.29;67.72;99504.97;4945421;28;20112;-92
2023/09/13 03:13:53;;;;;;;6.82;2.90;;;;;;;17.15;67.22;99483.25;4944387;28;20030;-92
2023/09/13 03:16:20;;;;;;;8.35;3.20;;;;;;;17.09;67.26;99476.34;4945323;28;20038;-93
2023/09/13 03:18:59;;;;;;;5.50;3.42;;;;;;;17.09;67.20;99483.72;4961205;28;20093;-92
2023/09/13 03:21:28;;;;;;;7.88;3.55;;;;;;;17.02;67.73;99486.06;4962128;28;20054;-93
2023/09/13 03:24:04;;;;;;;6.72;3.33;;;;;;;16.98;67.41;99479.63;4946044;28;20038;-92
2023/09/13 03:26:31;;;;;;;12.65;3.20;;;;;;;17.10;67.43;99501.63;4942679;29;20047;-94
2023/09/13 03:28:56;;;;;;;6.68;3.53;;;;;;;17.01;67.68;99496.13;4927153;29;20043;-93
2023/09/13 03:31:25;;;;;;;6.32;3.53;;;;;;;16.89;68.04;99488.53;4942352;29;20066;-93
2023/09/13 03:33:52;;;;;;;6.03;3.75;;;;;;;16.97;67.65;99506.00;4957153;29;20078;-92
2023/09/13 03:36:18;;;;;;;9.13;4.05;;;;;;;16.83;68.40;99499.81;4925722;29;20035;-92
2023/09/13 03:38:44;;;;;;;6.80;3.40;;;;;;;16.97;67.96;99522.31;4958577;29;20055;-93
2023/09/13 03:41:19;;;;;;;9.40;3.67;;;;;;;16.73;67.96;99479.88;4910233;29;20035;-93
2023/09/13 03:43:47;;;;;;;9.73;3.55;;;;;;;16.83;68.39;99499.81;4926412;29;20042;-93
2023/09/13 03:46:16;;;;;;;9.45;3.88;;;;;;;16.88;67.96;99516.03;4942395;29;20070;-93
2023/09/13 03:48:44;;;;;;;13.02;4.25;;;;;;;16.70;68.45;99496.78;4942496;29;20099;-92
2023/09/13 03:51:10;;;;;;;16.30;4.57;;;;;;;16.66;68.64;99498.50;4941895;29;20038;-93
2023/09/13 03:53:49;;;;;;;9.48;3.65;;;;;;;16.66;68.64;99501.22;4941736;29;20113;-90
2023/09/13 03:56:18;;;;;;;7.85;4.03;;;;;;;16.59;68.65;99487.25;4911289;29;20039;-92
2023/09/13 03:58:43;;;;;;;7.43;4.05;;;;;;;16.85;68.42;99519.34;4925497;29;20050;-92
2023/09/13 04:01:36;;;;;;;11.45;4.85;;;;;;;16.57;68.67;99495.72;4924929;29;20038;-92
2023/09/13 04:04:04;;;;;;;;;;;;;;;16.64;69.44;99536.06;4939563;29;20042;-93
2023/09/13 04:06:39;;;;;;;7.85;3.97;;;;;;;16.46;68.90;99505.22;4926932;29;19918;-92
2023/09/13 04:09:26;;;;;;;60.22;10.45;;;;;;;16.45;69.45;99514.44;4909868;29;20036;-93
2023/09/13 04:11:55;;;;;;;17.33;7.13;;;;;;;16.44;69.16;99506.63;4945076;29;20071;-94
2023/09/13 04:14:21;;;;;;;20.73;7.60;;;;;;;16.40;69.44;99508.34;4936092;28;20531;-93
2023/09/13 04:16:46;;;;;;;13.02;5.88;;;;;;;16.38;69.71;99505.13;4917475;29;20039;-94
2023/09/13 04:19:15;;;;;;;9.38;4.93;;;;;;;16.51;69.05;99526.03;4925965;29;20118;-94
2023/09/13 04:21:44;;;;;;;12.90;6.30;;;;;;;16.43;69.55;99508.53;4940008;28;20030;-96
2023/09/13 04:24:11;;;;;;;17.92;7.40;;;;;;;16.52;69.27;99520.31;4947416;29;20103;-96
2023/09/13 04:26:46;;;;;;;8.90;4.88;;;;;;;16.55;69.20;99519.69;4916442;29;20062;-93
2023/09/13 04:29:16;;;;;;;8.50;5.18;;;;;;;16.68;68.98;99539.00;4926996;29;20035;-94
2023/09/13 04:31:44;;;;;;;8.70;4.18;;;;;;;16.55;69.07;99527.03;4910108;29;20064;-93
2023/09/13 04:34:36;;;;;;;7.63;3.88;;;;;;;16.71;68.95;99536.47;4923846;29;20118;-95
2023/09/13 04:37:05;;;;;;;;;;;;;;;16.72;69.01;99546.22;4926334;29;20047;-93
2023/09/13 04:39:39;;;;;;;67.43;9.60;;;;;;;16.63;68.85;99536.41;4941818;29;19964;-94
2023/09/13 04:42:08;;;;;;;11.85;5.22;;;;;;;16.61;69.08;99525.03;4911016;29;20035;-94
2023/09/13 04:44:36;;;;;;;15.18;5.20;;;;;;;16.64;68.94;99536.06;4958489;29;20036;-95
2023/09/13 04:47:11;;;;;;;13.32;4.50;;;;;;;16.64;69.19;99525.19;4925913;29;20509;-94
2023/09/13 04:49:45;;;;;;;35.85;6.65;;;;;;;16.74;68.91;99546.72;4922515;29;20051;-93
2023/09/13 04:52:26;;;;;;;14.38;3.85;;;;;;;16.59;68.82;99517.16;4918508;29;20106;-96
2023/09/13 04:54:57;;;;;;;11.37;4.10;;;;;;;16.59;69.32;99514.44;4940547;28;20039;-95
2023/09/13 04:57:28;;;;;;;12.70;4.10;;;;;;;16.82;68.72;99534.38;4944635;28;20035;-94
2023/09/13 05:00:07;;;;;;;15.68;4.80;;;;;;;16.93;68.63;99538.47;4920323;28;20038;-93
2023/09/13 05:02:54;;;;;;;;;;;;;;;;;;;;;
2023/09/13 05:05:24;;;;;;;8.73;4.78;;;;;;;16.90;68.40;99511.09;4891934;29;20036;-94
2023/09/13 05:08:01;;;;;;;8.70;4.93;;;;;;;17.02;68.42;99519.50;4900373;29;20045;-92
2023/09/13 05:10:33;;;;;;;13.05;5.68;;;;;;;17.03;68.22;99512.16;4874569;29;20045;-94
2023/09/13 05:13:13;;;;;;;12.68;5.75;;;;;;;17.22;68.05;99525.56;4887148;29;20048;-94
2023/09/13 05:16:20;;;;;;;16.85;7.13;;;;;;;17.06;68.00;99498.75;4905595;29;20062;-94
2023/09/13 05:21:58;;;;;;;12.10;4.68;;;;;;;17.31;67.60;99501.97;4885030;29;20243;-94
2023/09/13 05:24:46;;;;;;;11.30;4.47;;;;;;;17.41;67.98;99506.31;4840806;29;20049;-96
2023/09/13 05:45:44;;;;;;;;;;;;;;;;;;;;;
2023/09/13 05:52:10;;;;;;;;;;;;;;;;;;;;;
2023/09/13 06:07:03;;;;;;;;;;;;;;;;;;;;;
2023/09/13 06:39:48;;;;;;;6.63;2.95;;;;;;;20.70;55.43;99535.97;4940560;29;20059;-96
2023/09/13 06:42:45;;;;;;;;;;;;;;;;;;;;;
2023/09/13 06:46:05;;;;;;;4.22;2.17;;;;;;;20.78;54.16;99513.22;4887265;29;20119;-96
2023/09/13 06:51:34;;;;;;;9.82;2.67;;;;;;;21.14;53.50;99523.53;4874366;29;20036;-95
2023/09/13 06:54:40;;;;;;;4.05;2.53;;;;;;;21.28;53.65;99517.78;4918458;29;20047;-95
2023/09/13 06:57:28;;;;;;;;;;;;;;;;;;;;;
2023/09/13 06:59:55;;;;;;;7.18;2.67;;;;;;;21.65;53.36;99539.84;4971292;28;20134;-94
2023/09/13 07:12:25;;;;;;;5.47;2.73;;;;;;;22.28;49.75;99527.84;4865604;29;20063;-93
2023/09/13 07:15:10;;;;;;;6.43;2.83;;;;;;;22.39;49.13;99524.31;4907613;29;20038;-92
2023/09/13 07:17:35;;;;;;;8.20;3.38;;;;;;;22.53;48.92;99512.16;4908433;29;20040;-93
2023/09/13 07:20:19;;;;;;;8.90;3.30;;;;;;;22.66;49.27;99519.25;4954658;28;20458;-93
2023/09/13 07:22:53;;;;;;;9.20;3.50;;;;;;;23.00;49.28;99541.81;5003409;28;20488;-95
2023/09/13 07:25:28;;;;;;;5.88;3.17;;;;;;;23.09;48.81;99539.75;4950964;28;20053;-95
2023/09/13 07:28:11;;;;;;;13.00;4.07;;;;;;;23.24;48.27;99546.44;4952426;28;20053;-94
2023/09/13 07:30:44;;;;;;;7.53;3.70;;;;;;;23.23;47.86;99533.09;4933118;28;20039;-95
2023/09/13 07:33:19;;;;;;;28.63;17.00;;;;;;;23.23;47.62;99511.09;4935376;28;20070;-94
2023/09/13 07:35:46;;;;;;;12.57;4.10;;;;;;;23.47;47.38;99541.22;4943531;28;20035;-96
2023/09/13 07:39:04;;;;;;;8.00;3.40;;;;;;;23.53;47.42;99520.56;4978120;28;20434;-95
2023/09/13 07:41:42;;;;;;;6.82;2.70;;;;;;;23.76;46.13;99548.31;4938364;29;20039;-94
2023/09/13 07:44:13;;;;;;;4.18;2.58;;;;;;;23.86;46.13;99546.19;4933030;29;20075;-95
2023/09/13 07:46:59;;;;;;;5.88;3.08;;;;;;;23.92;45.83;99531.81;4930661;29;20047;-95
2023/09/13 07:52:59;;;;;;;5.40;2.60;;;;;;;24.09;45.30;99507.84;4985062;28;20488;-94
2023/09/13 07:55:47;;;;;;;9.52;3.20;;;;;;;24.22;45.31;99506.63;4958949;28;20380;-96
2023/09/13 08:05:14;;;;;;;11.73;3.45;;;;;;;24.73;45.66;99511.31;4943451;29;20063;-95
2023/09/13 08:11:03;;;;;;;8.48;2.45;;;;;;;25.04;44.33;99502.13;5156797;23;20059;-94
2023/09/13 08:14:15;;;;;;;7.78;2.78;;;;;;;25.26;43.69;99522.69;4892186;29;20052;-96
2023/09/13 08:16:44;;;;;;;7.15;2.92;;;;;;;25.37;43.53;99514.63;4893129;29;20108;-95
2023/09/13 08:19:46;;;;;;;8.07;2.92;;;;;;;25.54;43.07;99516.09;4890596;29;20140;-93
2023/09/13 08:22:12;;;;;;;8.15;2.80;;;;;;;25.61;42.42;99492.22;4899487;28;20125;-92
2023/09/13 08:24:45;;;;;;;5.57;2.53;;;;;;;25.71;42.11;99490.00;4942912;28;20062;-95
2023/09/13 08:27:14;;;;;;;8.75;2.47;;;;;;;25.92;41.82;99484.91;4948076;28;20057;-94
2023/09/13 08:30:06;;;;;;;11.35;5.50;;;;;;;25.98;40.95;99477.09;4949120;28;20038;-93
2023/09/13 08:32:38;;;;;;;3.80;2.05;;;;;;;26.14;40.29;99479.72;4914215;28;20527;-92
2023/09/13 08:35:12;;;;;;;;;;;;;;;26.40;39.60;99496.28;4978584;28;20037;-91
2023/09/13 08:37:47;;;;;;;12.68;3.13;;;;;;;26.48;39.85;99494.44;4955575;28;19914;-93
2023/09/13 08:40:34;;;;;;;8.68;2.70;;;;;;;26.49;39.68;99478.66;4926093;28;20067;-90
2023/09/13 08:43:34;;;;;;;6.13;2.53;;;;;;;26.67;38.62;99478.94;4930742;29;20050;-93
2023/09/13 08:46:03;;;;;;;7.40;3.50;;;;;;;26.79;38.40;99478.66;4946647;28;20053;-94
2023/09/13 08:48:29;;;;;;;9.52;2.90;;;;;;;26.99;37.18;99487.59;4922171;29;20038;-92
2023/09/13 08:50:58;;;;;;;8.27;2.88;;;;;;;27.05;36.52;99479.78;4925084;28;20420;-93
2023/09/13 08:53:23;;;;;;;10.68;3.80;;;;;;;27.14;35.95;99471.97;4941863;28;20050;-92
2023/09/13 09:13:03;;;;;;;;;;;;;;;;;;;;;
2023/09/13 09:16:07;;;;;;;8.77;2.90;;;;;;;27.83;32.64;99435.53;4892742;29;20113;-95
2023/09/13 10:04:17;;;;;;;6.78;2.22;;;;;;;28.93;28.60;99404.09;4833947;29;20045;-93
2023/09/13 10:07:27;;;;;;;12.05;2.65;;;;;;;29.10;26.99;99435.03;4842866;29;20420;-96
2023/09/13 10:17:11;;;;;;;13.95;3.05;;;;;;;29.23;28.19;99422.41;4796758;30;20042;-94
2023/09/13 10:23:49;;;;;;;12.57;2.60;;;;;;;29.28;27.35;99419.28;4786050;29;20050;-94
2023/09/13 10:27:04;;;;;;;;;;;;;;;;;;;;;
2023/09/13 10:29:32;;;;;;;10.23;3.35;;;;;;;29.24;28.12;99407.38;4773367;30;20100;-95
2023/09/13 10:32:45;;;;;;;10.93;3.22;;;;;;;29.46;27.34;99429.56;4797369;29;20064;-93
2023/09/13 10:35:49;;;;;;;17.40;3.47;;;;;;;29.46;27.18;99421.25;4919007;29;20043;-93
2023/09/13 10:39:07;;;;;;;13.18;2.95;;;;;;;29.52;27.16;99412.13;4910815;29;20047;-96
2023/09/13 10:47:59;;;;;;;16.42;2.88;;;;;;;29.70;25.12;99398.31;4850443;29;20041;-93
2023/09/13 10:50:38;;;;;;;11.93;3.17;;;;;;;29.80;25.12;99405.00;4800434;29;20078;-95
2023/09/13 10:53:09;;;;;;;15.50;2.83;;;;;;;29.78;25.26;99399.88;4818688;29;20042;-92
2023/09/13 10:55:54;;;;;;;13.77;3.03;;;;;;;29.72;24.85;99389.59;4832824;29;20074;-95
2023/09/13 11:06:07;;;;;;;18.00;3.78;;;;;;;29.90;24.76;99393.09;4848323;29;20049;-96
2023/09/13 11:09:21;;;;;;;14.43;3.15;;;;;;;29.96;25.23;99402.63;4838802;29;20042;-96
2023/09/13 11:12:28;;;;;;;20.85;4.05;;;;;;;29.87;24.75;99384.81;4833221;29;20044;-96
2023/09/13 11:18:52;;;;;;;;;;;;;;;;;;;;;
2023/09/13 11:29:13;;;;;;;19.30;3.50;;;;;;;30.25;20.59;99385.09;4878072;29;20033;-95
2023/09/13 11:38:40;;;;;;;20.77;3.20;;;;;;;30.08;21.70;99381.97;4839981;29;20045;-95
2023/09/13 11:41:23;;;;;;;20.90;4.18;;;;;;;30.04;20.91;99366.50;4882335;29;20049;-95
2023/09/13 11:43:51;;;;;;;20.98;3.55;;;;;;;30.08;21.52;99367.31;4877551;29;20036;-94
2023/09/13 11:46:20;;;;;;;15.15;3.28;;;;;;;30.04;21.68;99349.84;4873806;29;20045;-94
2023/09/13 11:49:20;;;;;;;19.85;3.65;;;;;;;30.27;22.05;99369.59;4888660;29;20040;-94
2023/09/13 11:52:06;;;;;;;26.08;3.80;;;;;;;30.09;21.31;99353.03;4809219;29;20064;-91
2023/09/13 11:58:38;;;;;;;17.95;3.08;;;;;;;30.21;21.32;99372.00;4859826;29;20075;-94
2023/09/13 12:01:34;;;;;;;27.35;6.75;;;;;;;30.17;21.61;99362.91;4855115;29;20039;-93
2023/09/13 12:04:39;;;;;;;;;;;;;;;;;;;;;
2023/09/13 12:07:57;;;;;;;18.40;3.50;;;;;;;30.04;21.65;99338.75;4855690;29;20093;-93
2023/09/13 12:13:35;;;;;;;18.98;4.35;;;;;;;30.25;21.32;99343.44;4852608;29;20041;-91
2023/09/13 12:16:10;;;;;;;22.98;4.15;;;;;;;30.39;21.77;99357.31;4898456;29;20032;-93
2023/09/13 12:19:12;;;;;;;21.52;3.42;;;;;;;30.45;22.22;99352.91;4871210;29;20040;-91
2023/09/13 12:21:42;;;;;;;19.67;3.33;;;;;;;30.35;21.60;99340.63;4890080;29;20101;-94
2023/09/13 12:24:37;;;;;;;23.65;4.15;;;;;;;30.42;22.22;99346.19;4889373;29;20036;-91
2023/09/13 12:27:13;;;;;;;25.92;3.70;;;;;;;30.31;21.85;99322.41;4873272;29;20054;-94
2023/09/13 12:29:56;;;;;;;;;;;;;;;;;;;;;
2023/09/13 12:32:22;;;;;;;22.98;3.45;;;;;;;30.39;21.68;99327.53;4874196;29;20116;-92
2023/09/13 12:34:51;;;;;;;19.55;4.60;;;;;;;30.36;21.36;99325.56;4880644;29;20071;-94
2023/09/13 12:37:16;;;;;;;16.30;3.92;;;;;;;30.60;21.49;99339.72;4887140;29;20040;-90
2023/09/13 12:39:53;;;;;;;14.82;3.65;;;;;;;30.68;20.94;99335.72;4880353;29;20271;-91
2023/09/13 12:46:18;;;;;;;;;;;;;;;;;;;;;
2023/09/13 12:48:44;;;;;;;22.27;3.40;;;;;;;30.75;21.52;99334.88;4888696;29;20115;-93
2023/09/13 12:51:13;;;;;;;18.80;3.83;;;;;;;30.75;21.69;99337.66;4872092;29;20049;-92
2023/09/13 13:07:05;;;;;;;19.58;3.72;;;;;;;30.90;22.64;99311.38;4908833;29;20111;-96
2023/09/13 13:09:33;;;;;;;13.25;2.95;;;;;;;31.07;21.71;99329.16;4945487;29;20545;-94
2023/09/13 13:20:20;;;;;;;;;;;;;;;;;;;;;
2023/09/13 13:25:59;;;;;;;20.80;3.72;;;;;;;31.13;21.86;99318.34;4932502;29;20071;-94
2023/09/13 13:29:09;;;;;;;17.00;3.92;;;;;;;30.95;21.94;99287.91;4912215;29;20147;-92
2023/09/13 13:34:36;;;;;;;19.67;3.80;;;;;;;30.86;21.87;99296.69;4907141;29;20571;-92
2023/09/13 13:37:13;;;;;;;13.73;3.63;;;;;;;30.86;22.20;99288.34;4927566;29;20042;-93
2023/09/13 13:39:44;;;;;;;18.88;3.75;;;;;;;30.89;22.59;99282.00;4942449;29;20111;-95
2023/09/13 13:42:27;;;;;;;25.85;3.25;;;;;;;30.94;22.18;99277.97;4912356;29;20074;-91
2023/09/13 13:44:56;;;;;;;22.08;3.72;;;;;;;30.99;21.88;99277.56;4892335;29;20039;-92
2023/09/13 13:47:21;;;;;;;16.55;4.10;;;;;;;31.01;22.21;99275.94;4909246;29;20160;-91
2023/09/13 13:49:53;;;;;;;15.90;3.45;;;;;;;31.09;22.32;99282.25;4890797;29;20098;-90
2023/09/13 13:52:57;;;;;;;13.55;3.33;;;;;;;31.13;22.05;99287.75;4912324;29;20047;-93
2023/09/13 13:56:07;;;;;;;17.92;2.85;;;;;;;31.01;22.22;99264.03;4921908;29;20040;-92
2023/09/13 13:58:33;;;;;;;16.48;3.38;;;;;;;30.91;21.84;99262.91;4880081;29;20044;-93
2023/09/13 14:01:08;;;;;;;20.40;3.83;;;;;;;31.04;21.90;99274.31;4921707;29;20111;-93
2023/09/13 14:03:37;;;;;;;16.00;3.40;;;;;;;31.01;22.14;99259.25;4906223;29;20047;-94
2023/09/13 14:06:05;;;;;;;14.63;2.78;;;;;;;31.04;22.08;99257.63;4930049;29;20430;-95
2023/09/13 14:08:42;;;;;;;17.45;3.78;;;;;;;31.13;21.35;99280.22;4939142;29;20103;-95
2023/09/13 14:11:16;;;;;;;11.80;3.47;;;;;;;31.27;21.66;99276.50;4919624;29;20398;-94
2023/09/13 14:13:44;;;;;;;14.02;3.30;;;;;;;31.19;21.89;99261.06;4947582;29;20560;-94
2023/09/13 14:16:29;;;;;;;18.92;3.13;;;;;;;31.20;22.21;99257.91;4946943;29;20042;-93
2023/09/13 14:22:06;;;;;;;18.92;3.17;;;;;;;31.34;22.07;99259.75;5083197;23;20091;-93
2023/09/13 14:24:32;;;;;;;12.88;3.75;;;;;;;31.39;22.13;99253.72;4964485;28;20031;-94
2023/09/13 14:27:01;;;;;;;14.63;3.40;;;;;;;31.50;22.86;99259.25;4926371;29;20052;-94
2023/09/13 14:29:30;;;;;;;13.90;2.72;;;;;;;31.55;21.98;99260.78;4926670;29;20449;-93
2023/09/13 14:32:00;;;;;;;20.10;3.58;;;;;;;31.70;21.53;99273.31;4930557;29;20121;-92
2023/09/13 14:34:26;;;;;;;24.70;3.13;;;;;;;31.72;20.99;99256.22;4947000;29;20042;-94
2023/09/13 14:37:28;;;;;;;16.45;3.35;;;;;;;31.63;21.71;99240.00;4950687;29;20270;-94
2023/09/13 14:40:17;;;;;;;14.27;3.08;;;;;;;31.85;21.33;99253.69;4947758;29;20039;-93
2023/09/13 14:43:07;;;;;;;15.23;3.40;;;;;;;31.73;21.47;99236.31;4946810;29;20504;-92
2023/09/13 14:45:37;;;;;;;22.17;3.53;;;;;;;31.66;20.98;99238.38;4920961;29;20044;-93
2023/09/13 14:48:11;;;;;;;16.48;3.50;;;;;;;31.57;21.91;99236.88;4890090;29;20048;-93
2023/09/13 14:50:46;;;;;;;14.15;3.70;;;;;;;31.49;22.14;99243.72;4905306;29;20426;-94
2023/09/13 14:53:36;;;;;;;14.52;3.40;;;;;;;31.47;22.08;99254.50;4904669;29;20169;-94
2023/09/13 14:56:03;;;;;;;17.98;5.55;;;;;;;31.25;23.22;99251.09;4905929;29;20530;-94
2023/09/13 14:58:31;;;;;;;18.75;4.13;;;;;;;31.28;23.96;99274.53;4890174;29;20051;-95
2023/09/13 15:01:22;;;;;;;23.77;5.05;;;;;;;30.83;25.16;99233.56;4889556;29;20053;-94
2023/09/13 15:03:59;;;;;;;20.23;3.83;;;;;;;30.67;24.37;99247.16;4905635;29;20509;-93
2023/09/13 15:06:25;;;;;;;17.40;3.45;;;;;;;30.46;24.32;99240.56;4889855;29;20063;-92
2023/09/13 15:08:51;;;;;;;20.65;3.13;;;;;;;30.49;24.47;99250.09;4904784;29;20131;-93
2023/09/13 15:15:08;;;;;;;18.13;4.15;;;;;;;29.98;25.51;99238.41;4922031;29;20071;-96
2023/09/13 15:17:40;;;;;;;21.27;4.57;;;;;;;29.92;25.52;99243.56;4904776;29;20130;-93
2023/09/13 15:20:06;;;;;;;16.85;3.83;;;;;;;29.90;25.87;99250.72;4905601;29;20117;-93
2023/09/13 15:23:05;;;;;;;17.17;3.40;;;;;;;29.73;26.33;99246.84;4943769;29;20101;-93
2023/09/13 15:25:37;;;;;;;9.40;2.85;;;;;;;29.68;27.34;99252.78;4924860;29;20040;-95
2023/09/13 15:28:06;;;;;;;16.00;3.38;;;;;;;29.50;27.58;99244.50;4903502;29;20040;-93
2023/09/13 15:30:41;;;;;;;17.17;3.42;;;;;;;29.53;27.71;99258.34;4887791;29;20044;-94
2023/09/13 15:33:07;;;;;;;17.42;3.97;;;;;;;29.35;27.87;99244.50;4872817;29;20048;-93
2023/09/13 15:35:41;;;;;;;10.70;3.15;;;;;;;29.37;28.55;99272.66;4888749;29;20399;-92
2023/09/13 15:38:12;;;;;;;11.27;3.10;;;;;;;29.28;28.36;99257.59;4889188;29;20113;-93
2023/09/13 15:40:39;;;;;;;11.77;2.88;;;;;;;29.19;28.44;99264.31;4889321;29;20043;-93
2023/09/13 15:43:09;;;;;;;15.93;3.20;;;;;;;29.05;28.87;99255.19;4901891;29;20036;-93
2023/09/13 15:45:42;;;;;;;14.48;2.92;;;;;;;28.94;29.16;99250.44;4888954;29;20107;-93
2023/09/13 15:48:12;;;;;;;15.35;3.38;;;;;;;28.82;29.21;99245.28;4873418;29;20051;-93
2023/09/13 15:50:37;;;;;;;12.50;4.07;;;;;;;28.82;29.39;99261.91;4900000;29;20043;-94
2023/09/13 15:53:03;;;;;;;12.13;3.30;;;;;;;28.69;29.30;99255.97;4910254;29;20103;-93
2023/09/13 15:55:28;;;;;;;11.85;3.05;;;;;;;28.57;29.56;99248.81;4902344;29;20038;-93
2023/09/13 15:57:54;;;;;;;11.73;3.10;;;;;;;28.51;29.97;99255.94;4917880;29;20042;-92
2023/09/13 16:00:20;;;;;;;16.88;3.63;;;;;;;28.49;30.21;99261.06;4907149;29;20047;-94
2023/09/13 16:02:45;;;;;;;16.63;3.97;;;;;;;28.29;30.03;99241.22;4925975;29;20429;-93
2023/09/13 16:05:11;;;;;;;15.80;4.15;;;;;;;28.23;30.17;99247.53;4912316;29;20055;-93
2023/09/13 16:07:36;;;;;;;14.27;5.07;;;;;;;28.13;30.96;99241.56;4924015;29;20054;-91
2023/09/13 16:10:03;;;;;;;11.15;3.55;;;;;;;28.16;30.58;99260.19;4925679;29;20043;-93
2023/09/13 16:12:32;;;;;;;18.42;3.78;;;;;;;27.98;30.75;99253.78;4940470;29;20035;-92
2023/09/13 16:14:57;;;;;;;12.63;3.17;;;;;;;27.87;30.36;99253.75;4938809;29;20039;-93
2023/09/13 16:17:24;;;;;;;14.45;3.00;;;;;;;27.81;30.71;99252.50;4922195;29;20039;-93
2023/09/13 16:19:57;;;;;;;12.60;3.47;;;;;;;27.77;30.35;99266.31;4938355;29;20056;-93
2023/09/13 16:22:22;;;;;;;14.40;4.47;;;;;;;27.64;30.59;99248.44;4952842;28;20051;-93
2023/09/13 16:24:49;;;;;;;16.05;3.38;;;;;;;27.56;30.46;99255.91;4939105;29;20043;-93
2023/09/13 16:27:16;;;;;;;15.52;4.00;;;;;;;27.51;30.81;99259.03;4924423;29;20031;-93
2023/09/13 16:29:44;;;;;;;15.45;3.50;;;;;;;27.42;31.03;99262.13;4923221;29;20047;-93